No es requerida especial atención con respecto al clima.   -   No hay avisos meteorológicos

Informes METAR

 

LEZL - Sevilla, Spain
Distancia de la estación: ESE 25km
Actualización: 12/12/2018 12:00
Poco nuboso
Poco nuboso
 Viento de variable
Viento: variable 2 km/h
Temperatura: 16°C
Rocío: 12°C
Humedad: 77%
Barómetro: 1024 hPa
Nubes: Poco nuboso
Visibilidad: 10 km
Detalles de las nubes: Poco nuboso 1372 m
2018/12/12 11:00 LEZL 121100Z VRB01KT 9999 FEW045 16/12 Q1024 NOSIG
LEMO - Morón, Spain
Distancia de la estación: SE 65km
Actualización: 12/12/2018 12:00
Neblina, Parcialmente nuboso
Neblina, Parcialmente nuboso
 Viento de calm
Viento: Calma
Temperatura: 16°C
Rocío: 13°C
Humedad: 83%
Barómetro: 1024 hPa
Resumen: Neblina
Nubes: Parcialmente nuboso
Visibilidad: 4 km
Detalles de las nubes: Parcialmente nuboso 1372 m
2018/12/12 11:00 LEMO 121100Z 00000KT 4000 BR SCT045 16/13 Q1024 NOSIG
LEJR - Jeréz, Spain
Distancia de la estación: S 87km
Actualización: 12/12/2018 12:00
Niebla, Cubierto
Niebla, Cubierto
 Viento de variable
Viento: variable 2 km/h
Temperatura: 14°C
Rocío: 14°C
Humedad: 100%
Barómetro: 1024 hPa
Resumen: Niebla
Nubes: Cubierto
Visibilidad: 1 km
Detalles de las nubes: Cubierto 30 m
2018/12/12 11:00 LEJR 121100Z VRB01KT 0500 FG VV001 14/14 Q1024
 
LERT - Rota, Spain
Distancia de la estación: S 101km
Actualización: 12/12/2018 12:00
Parcialmente nuboso
Parcialmente nuboso
 Viento de NO
Viento: NO 7 km/h
Temperatura: 16°C
Rocío: 14°C
Humedad: 88%
Barómetro: 1024 hPa
Nubes: Parcialmente nuboso
Visibilidad: 7 km
Detalles de las nubes: Parcialmente nuboso 305 m
2018/12/12 11:00 LERT 121100Z 31004KT 260V010 7000 SCT010 16/14 Q1024 NOSIG
LEMG - Málaga, Spain
Distancia de la estación: ESE 178km
Actualización: 12/12/2018 12:00
Poco nuboso
Poco nuboso
 Viento de O
Viento: O 22 km/h
Temperatura: 18°C
Rocío: 11°C
Humedad: 64%
Barómetro: 1022 hPa
Nubes: Poco nuboso
Visibilidad: 10 km
Detalles de las nubes: Poco nuboso 610 m
2018/12/12 11:00 LEMG 121100Z 27012KT 240V300 9999 FEW020 18/11 Q1022 NOSIG
LEBA - Córdoba, Spain
Distancia de la estación: ENE 123km
Actualización: 12/12/2018 12:00
Despejado
Despejado
 Viento de ENE
Viento: ENE 7 km/h
Temperatura: 12°C
Rocío: 9°C
Humedad: 82%
Barómetro: 1024 hPa
Resumen: Despejado
Visibilidad: mayor de 10 km
2018/12/12 11:00 LEBA 121100Z 07004KT 030V120 CAVOK 12/09 Q1024
 
LEGR - Granada, Spain
Distancia de la estación: E 215km
Actualización: 12/12/2018 12:00
Poco nuboso
Poco nuboso
 Viento de calm
Viento: Calma
Temperatura: 10°C
Rocío: 8°C
Humedad: 88%
Barómetro: 1024 hPa
Nubes: Poco nuboso
Visibilidad: 8 km
Detalles de las nubes: Poco nuboso 152 m
2018/12/12 11:00 LEGR 121100Z 00000KT 8000 FEW005 10/08 Q1024
LEAM - Almería, Spain
Distancia de la estación: E 344km
Actualización: 12/12/2018 12:00
Despejado
Despejado
 Viento de SO
Viento: SO 11 km/h
Temperatura: 17°C
Rocío: 11°C
Humedad: 68%
Barómetro: 1021 hPa
Resumen: Despejado
Visibilidad: mayor de 10 km
2018/12/12 11:00 LEAM 121100Z 22006KT 190V260 CAVOK 17/11 Q1021
GCLP - Las Palmas/Aeropuerto, Spain
Distancia de la estación: SO 1410km
Actualización: 12/12/2018 12:00
Parcialmente nuboso
Parcialmente nuboso
 Viento de NNE
Viento: NNE 31 km/h
Temperatura: 22°C
Rocío: 12°C
Humedad: 53%
Barómetro: 1026 hPa
Nubes: Parcialmente nuboso
Visibilidad: 10 km
Detalles de las nubes: Parcialmente nuboso 1158 m
2018/12/12 11:00 GCLP 121100Z 03017KT 9999 SCT038 22/12 Q1026 NOSIG
 
LEMD - Madrid/Barajas, Spain
Distancia de la estación: NNE 402km
Actualización: 12/12/2018 12:00
Neblina, Bancos de, Niebla, Cubierto
Neblina, Bancos de, Niebla, Cubierto
 Viento de N
Viento: N 6 km/h
Temperatura: 4°C
Rocío: 4°C
Humedad: 100%
Barómetro: 1023 hPa
Resumen: Neblina, Bancos de, Niebla
Nubes: Cubierto
Visibilidad: 1 km
Detalles de las nubes: Cubierto 61 m
2018/12/12 11:00 LEMD 121100Z 36003KT 330V030 1300 R32L/1500N R32R/1300U BR BCFG OVC002 04/04 Q1023 BECMG 1500 BR BKN006
LEVD - Valladolid, Spain
Distancia de la estación: N 492km
Actualización: 12/12/2018 12:00
Niebla, Cubierto
Niebla, Cubierto
 Viento de S
Viento: S 7 km/h
Temperatura: 4°C
Sensación térmica: 2°C
Rocío: 3°C
Humedad: 93%
Barómetro: 1021 hPa
Resumen: Niebla
Nubes: Cubierto
Visibilidad: 0 km
Detalles de las nubes: Cubierto 61 m
2018/12/12 11:00 LEVD 121100Z 19004KT 140V210 0300 R23/0550N R05/0400N FG VV002 04/03 Q1021
LEBL - Barcelona, Spain
Distancia de la estación: NE 816km
Actualización: 12/12/2018 12:00
Muy nuboso
Muy nuboso
 Viento de NO
Viento: NO 13 km/h
Temperatura: 12°C
Rocío: 6°C
Humedad: 67%
Barómetro: 1019 hPa
Nubes: Muy nuboso
Visibilidad: 10 km
Detalles de las nubes: Poco nuboso 762 m
Muy nuboso 1067 m
2018/12/12 11:00 LEBL 121100Z 32007KT 290V360 9999 FEW025 BKN035 12/06 Q1019 NOSIG